Time,TemperatureF,DewpointF,PressureIn,WindDirection,WindDirectionDegrees,WindSpeedMPH,WindSpeedGustMPH,Humidity,HourlyPrecipIn,Conditions,Clouds,dailyrainin,SoftwareType,DateUTC
2013-09-15 00:00:00,56.8,36.8,29.78,NNW,345,0.0,0.0,47,0.00,,---,0.00,VWS V14.01,2013-09-15 07:00:00,
2013-09-15 00:20:00,57.2,37.2,29.78,NNW,345,0.0,0.0,47,0.00,,---,0.00,VWS V14.01,2013-09-15 07:20:00,
2013-09-15 00:40:00,57.0,37.0,29.78,NNW,345,0.0,0.0,47,0.00,,---,0.00,VWS V14.01,2013-09-15 07:40:00,
2013-09-15 01:00:00,57.2,37.2,29.78,NNW,344,0.0,0.0,47,0.00,,---,0.00,VWS V14.01,2013-09-15 08:00:00,
2013-09-15 01:20:00,56.7,36.7,29.78,NNW,345,0.0,0.0,47,0.00,,---,0.00,VWS V14.01,2013-09-15 08:20:00,
2013-09-15 01:40:00,56.5,36.5,29.78,NNW,345,0.0,0.0,47,0.00,,---,0.00,VWS V14.01,2013-09-15 08:40:00,
2013-09-15 02:00:00,56.3,36.3,29.78,NNW,345,0.0,0.0,47,0.00,,---,0.00,VWS V14.01,2013-09-15 09:00:00,
2013-09-15 02:20:00,55.6,35.7,29.78,NNW,345,0.0,0.0,47,0.00,,---,0.00,VWS V14.01,2013-09-15 09:20:00,
2013-09-15 02:40:00,55.8,35.8,29.78,NNW,345,0.0,0.0,47,0.00,,---,0.00,VWS V14.01,2013-09-15 09:40:00,
2013-09-15 03:00:00,55.2,35.9,29.78,NNW,345,0.0,0.0,48,0.00,,---,0.00,VWS V14.01,2013-09-15 10:00:00,
2013-09-15 03:20:00,54.7,35.4,29.78,NNW,345,0.0,0.0,48,0.00,,---,0.00,VWS V14.01,2013-09-15 10:20:00,
2013-09-15 03:40:00,54.5,35.2,29.78,NNW,345,0.0,0.0,48,0.00,,---,0.00,VWS V14.01,2013-09-15 10:40:00,
2013-09-15 04:00:00,55.6,35.7,29.78,NNW,345,0.0,0.0,47,0.00,,---,0.00,VWS V14.01,2013-09-15 11:00:00,
2013-09-15 04:20:00,54.5,35.2,29.78,NNW,345,0.0,0.0,48,0.00,,---,0.00,VWS V14.01,2013-09-15 11:20:00,
2013-09-15 04:40:00,53.4,34.2,29.75,NNW,345,0.0,0.0,48,0.00,,---,0.00,VWS V14.01,2013-09-15 11:40:00,
2013-09-15 05:00:00,53.2,34.1,29.78,NNW,345,0.0,0.0,48,0.00,,---,0.00,VWS V14.01,2013-09-15 12:00:00,
2013-09-15 05:20:00,53.4,35.8,29.78,NNW,345,0.0,0.0,51,0.00,,---,0.00,VWS V14.01,2013-09-15 12:20:00,
2013-09-15 05:40:00,53.4,34.2,29.78,NNW,345,0.0,0.0,48,0.00,,---,0.00,VWS V14.01,2013-09-15 12:40:00,
2013-09-15 06:00:00,54.5,35.2,29.78,NNW,345,0.0,0.0,48,0.00,,---,0.00,VWS V14.01,2013-09-15 13:00:00,
2013-09-15 06:20:00,55.0,35.7,29.78,NNW,345,0.0,0.0,48,0.00,,---,0.00,VWS V14.01,2013-09-15 13:20:00,
2013-09-15 06:40:00,55.9,36.0,29.78,NNW,345,0.0,0.0,47,0.00,,---,0.00,VWS V14.01,2013-09-15 13:40:00,
2013-09-15 07:00:00,55.6,35.7,29.78,North,1,0.0,2.7,47,0.00,,---,0.00,VWS V14.01,2013-09-15 14:00:00,
2013-09-15 07:20:00,57.2,38.2,29.81,North,2,0.0,0.0,49,0.00,,---,0.00,VWS V14.01,2013-09-15 14:20:00,
2013-09-15 07:40:00,61.7,40.7,29.81,North,2,0.0,0.0,46,0.00,,---,0.00,VWS V14.01,2013-09-15 14:40:00,
2013-09-15 08:00:00,65.1,45.0,29.81,North,2,0.0,0.0,48,0.00,,---,0.00,VWS V14.01,2013-09-15 15:00:00,
2013-09-15 08:20:00,68.4,47.4,29.81,NNE,19,0.0,3.1,47,0.00,,---,0.00,VWS V14.01,2013-09-15 15:20:00,
2013-09-15 08:40:00,71.8,49.9,29.81,NNW,338,0.0,3.6,46,0.00,,---,0.00,VWS V14.01,2013-09-15 15:40:00,
2013-09-15 09:00:00,74.3,52.2,29.81,NNW,337,0.0,3.1,46,0.00,,---,0.00,VWS V14.01,2013-09-15 16:00:00,
2013-09-15 09:20:00,80.4,58.4,29.81,SSW,193,3.1,5.8,47,0.00,,---,0.00,VWS V14.01,2013-09-15 16:20:00,
2013-09-15 09:40:00,82.2,61.2,29.84,SSE,153,4.0,7.6,49,0.00,,---,0.00,VWS V14.01,2013-09-15 16:40:00,
2013-09-15 10:00:00,85.6,63.7,29.84,SSE,153,3.1,8.3,48,0.00,,---,0.00,VWS V14.01,2013-09-15 17:00:00,
2013-09-15 10:20:00,87.1,65.0,29.84,SSE,154,4.0,7.6,48,0.00,,---,0.00,VWS V14.01,2013-09-15 17:20:00,
2013-09-15 10:40:00,88.9,66.7,29.84,SE,130,3.1,7.6,48,0.00,,---,0.00,VWS V14.01,2013-09-15 17:40:00,
2013-09-15 11:00:00,86.0,64.0,29.84,SSW,193,11.0,11.0,48,0.00,,---,0.00,VWS V14.01,2013-09-15 18:00:00,
2013-09-15 11:20:00,88.2,66.0,29.84,South,182,4.0,13.2,48,0.00,,---,0.00,VWS V14.01,2013-09-15 18:20:00,
2013-09-15 11:40:00,86.5,64.5,29.84,SSW,212,5.8,12.3,48,0.00,,---,0.00,VWS V14.01,2013-09-15 18:40:00,
2013-09-15 12:00:00,86.0,64.0,29.84,SSW,209,8.7,12.8,48,0.00,,---,0.00,VWS V14.01,2013-09-15 19:00:00,
2013-09-15 12:20:00,87.6,65.5,29.84,SSE,168,8.7,12.8,48,0.00,,---,0.00,VWS V14.01,2013-09-15 19:20:00,
2013-09-15 12:40:00,88.5,64.5,29.84,ESE,116,3.6,11.0,45,0.00,,---,0.00,VWS V14.01,2013-09-15 19:40:00,
2013-09-15 13:00:00,87.8,62.5,29.84,SE,146,8.1,12.3,43,0.00,,---,0.00,VWS V14.01,2013-09-15 20:00:00,
2013-09-15 13:20:00,92.7,60.2,29.84,ESE,119,2.7,11.0,34,0.00,,---,0.00,VWS V14.01,2013-09-15 20:20:00,
2013-09-15 13:40:00,91.8,59.4,29.84,SSW,199,5.8,13.2,34,0.00,,---,0.00,VWS V14.01,2013-09-15 20:40:00,
2013-09-15 14:00:00,93.4,60.8,29.84,SSE,158,8.3,12.8,34,0.00,,---,0.00,VWS V14.01,2013-09-15 21:00:00,
2013-09-15 14:20:00,96.6,63.7,29.84,SSW,198,7.6,14.1,34,0.00,,---,0.00,VWS V14.01,2013-09-15 21:20:00,
2013-09-15 14:40:00,94.6,61.9,29.81,South,188,7.6,11.0,34,0.00,,---,0.00,VWS V14.01,2013-09-15 21:40:00,
2013-09-15 15:00:00,93.4,60.8,29.81,SSE,162,6.3,12.8,34,0.00,,---,0.00,VWS V14.01,2013-09-15 22:00:00,
2013-09-15 15:20:00,97.3,63.5,29.81,SSW,198,3.1,12.8,33,0.00,,---,0.00,VWS V14.01,2013-09-15 22:20:00,
2013-09-15 15:40:00,97.5,63.6,29.81,SSW,197,4.0,12.3,33,0.00,,---,0.00,VWS V14.01,2013-09-15 22:40:00,
2013-09-15 16:00:00,94.6,61.9,29.81,South,172,5.4,12.8,34,0.00,,---,0.00,VWS V14.01,2013-09-15 23:00:00,
2013-09-15 16:20:00,94.8,62.1,29.81,SSE,166,5.8,9.2,34,0.00,,---,0.00,VWS V14.01,2013-09-15 23:20:00,
2013-09-15 16:40:00,90.3,59.0,29.81,SSE,147,4.0,10.1,35,0.00,,---,0.00,VWS V14.01,2013-09-15 23:40:00,
2013-09-15 17:00:00,91.4,59.1,29.81,SSW,206,5.4,8.3,34,0.00,,---,0.00,VWS V14.01,2013-09-16 00:00:00,
2013-09-15 17:20:00,91.2,59.8,29.81,WSW,258,3.1,9.6,35,0.00,,---,0.00,VWS V14.01,2013-09-16 00:20:00,
2013-09-15 17:40:00,86.2,56.1,29.81,SSW,206,6.3,8.3,36,0.00,,---,0.00,VWS V14.01,2013-09-16 00:40:00,
2013-09-15 18:00:00,80.1,53.6,29.81,WSW,243,3.6,8.1,40,0.00,,---,0.00,VWS V14.01,2013-09-16 01:00:00,
2013-09-15 18:20:00,77.7,51.5,29.81,WSW,238,3.1,8.7,40,0.00,,---,0.00,VWS V14.01,2013-09-16 01:20:00,
2013-09-15 18:40:00,75.6,52.8,29.81,SSW,197,4.5,6.3,45,0.00,,---,0.00,VWS V14.01,2013-09-16 01:40:00,
2013-09-15 19:00:00,72.9,50.9,29.84,South,191,2.2,6.3,46,0.00,,---,0.00,VWS V14.01,2013-09-16 02:00:00,
2013-09-15 19:20:00,70.9,50.8,29.84,South,177,0.0,5.8,49,0.00,,---,0.00,VWS V14.01,2013-09-16 02:20:00,
2013-09-15 19:40:00,68.4,49.0,29.84,SW,236,0.0,3.6,50,0.00,,---,0.00,VWS V14.01,2013-09-16 02:40:00,
2013-09-15 20:00:00,66.0,46.9,29.84,NNE,12,0.0,0.0,50,0.00,,---,0.00,VWS V14.01,2013-09-16 03:00:00,
2013-09-15 20:20:00,64.4,45.4,29.84,NNE,12,0.0,0.0,50,0.00,,---,0.00,VWS V14.01,2013-09-16 03:20:00,
2013-09-15 20:40:00,63.5,45.1,29.84,NNE,12,0.0,0.0,51,0.00,,---,0.00,VWS V14.01,2013-09-16 03:40:00,
2013-09-15 21:00:00,61.7,43.4,29.84,NNE,12,0.0,0.0,51,0.00,,---,0.00,VWS V14.01,2013-09-16 04:00:00,
2013-09-15 21:20:00,59.9,40.7,29.84,NNE,12,0.0,0.0,49,0.00,,---,0.00,VWS V14.01,2013-09-16 04:20:00,
2013-09-15 21:40:00,60.4,41.2,29.84,NNE,12,0.0,0.0,49,0.00,,---,0.00,VWS V14.01,2013-09-16 04:40:00,
2013-09-15 22:00:00,58.1,39.1,29.84,NNE,12,0.0,0.0,49,0.00,,---,0.00,VWS V14.01,2013-09-16 05:00:00,
2013-09-15 22:20:00,57.6,38.6,29.84,NNE,12,0.0,0.0,49,0.00,,---,0.00,VWS V14.01,2013-09-16 05:20:00,
2013-09-15 22:40:00,57.2,39.8,29.84,NNE,12,0.0,0.0,52,0.00,,---,0.00,VWS V14.01,2013-09-16 05:40:00,
2013-09-15 23:00:00,57.2,38.2,29.84,NNE,12,0.0,0.0,49,0.00,,---,0.00,VWS V14.01,2013-09-16 06:00:00,
2013-09-15 23:20:00,56.8,38.4,29.84,NNE,12,0.0,0.0,50,0.00,,---,0.00,VWS V14.01,2013-09-16 06:20:00,
2013-09-15 23:40:00,55.9,38.6,29.84,NNE,12,0.0,0.0,52,0.00,,---,0.00,VWS V14.01,2013-09-16 06:40:00,